createdAt,value
2019-05-10T06:09:45.678Z,21.20
2019-05-10T06:12:16.443Z,21.10
2019-05-10T06:14:49.799Z,21.20
2019-05-10T06:17:23.824Z,21.30
2019-05-10T06:19:51.968Z,21.20
2019-05-10T06:22:23.725Z,21.30
2019-05-10T06:24:55.234Z,21.40
2019-05-10T06:27:25.236Z,21.40
2019-05-10T06:29:55.526Z,21.70
2019-05-10T06:32:24.411Z,21.90
2019-05-10T06:34:54.338Z,22.00
2019-05-10T06:37:24.601Z,22.10
2019-05-10T06:39:57.238Z,22.20
2019-05-10T06:42:28.775Z,22.20
2019-05-10T06:44:58.090Z,22.30
2019-05-10T06:47:28.285Z,22.30
2019-05-10T06:49:57.289Z,22.30
2019-05-10T06:52:29.566Z,22.30
2019-05-10T06:55:00.468Z,22.50
2019-05-10T06:57:30.831Z,22.60
2019-05-10T07:00:06.254Z,22.70
2019-05-10T07:02:32.466Z,22.80
2019-05-10T07:05:02.418Z,23.00
2019-05-10T07:07:43.688Z,23.10
2019-05-10T07:10:15.690Z,23.10
2019-05-10T07:12:40.226Z,23.10
2019-05-10T07:15:10.766Z,23.10
2019-05-10T07:17:45.248Z,23.10
2019-05-10T07:20:12.407Z,23.30
2019-05-10T07:22:42.592Z,23.40
2019-05-10T07:25:14.598Z,23.50
2019-05-10T07:27:44.791Z,23.50
2019-05-10T07:30:15.711Z,23.50
2019-05-10T07:32:47.330Z,23.50
2019-05-10T07:35:16.378Z,23.40
2019-05-10T07:37:47.667Z,23.30
2019-05-10T07:40:20.354Z,23.40
2019-05-10T07:42:52.203Z,23.50
2019-05-10T07:45:25.603Z,23.40
2019-05-10T07:47:52.534Z,23.40
2019-05-10T07:50:21.647Z,23.40
2019-05-10T07:52:50.778Z,23.50
2019-05-10T07:55:27.732Z,23.30
2019-05-10T07:57:59.148Z,23.50
2019-05-10T08:00:29.480Z,23.50
2019-05-10T08:03:11.842Z,23.70
2019-05-10T08:05:30.267Z,23.70
2019-05-10T08:08:00.585Z,23.80
2019-05-10T08:10:31.186Z,23.90
2019-05-10T08:13:03.474Z,23.80
2019-05-10T08:15:34.746Z,23.80
2019-05-10T08:18:03.719Z,23.90
2019-05-10T08:20:46.606Z,23.90
2019-05-10T08:23:06.491Z,23.90
2019-05-10T08:25:44.324Z,23.90
2019-05-10T08:28:07.544Z,24.00
2019-05-10T08:30:50.778Z,24.00
2019-05-10T08:33:14.049Z,24.00
2019-05-10T08:35:45.902Z,23.80
2019-05-10T08:38:13.974Z,23.60
2019-05-10T08:40:44.751Z,23.60
2019-05-10T08:43:16.907Z,23.50
2019-05-10T08:45:49.534Z,23.50
2019-05-10T08:48:18.442Z,23.50
2019-05-10T08:50:55.898Z,23.50
2019-05-10T08:53:19.677Z,23.50
2019-05-10T08:55:49.276Z,23.60
2019-05-10T08:58:21.710Z,23.60
2019-05-10T09:01:05.247Z,23.60
2019-05-10T09:03:24.008Z,23.60
2019-05-10T09:05:54.898Z,23.50
2019-05-10T09:08:27.322Z,23.50
2019-05-10T09:10:55.493Z,23.50
2019-05-10T09:13:28.669Z,23.50
2019-05-10T09:15:56.931Z,23.60
2019-05-10T09:18:26.544Z,23.50
2019-05-10T09:21:00.318Z,23.60
2019-05-10T09:23:28.113Z,23.60
2019-05-10T09:26:03.659Z,23.70
2019-05-10T09:28:27.799Z,23.80
2019-05-10T09:31:01.198Z,23.80
2019-05-10T09:33:29.378Z,23.80
2019-05-10T09:36:02.744Z,23.70
2019-05-10T09:38:34.929Z,23.60
2019-05-10T09:41:02.456Z,23.80
2019-05-10T09:43:32.797Z,24.00
2019-05-10T09:46:03.117Z,23.90
2019-05-10T09:48:33.414Z,24.00
2019-05-10T09:51:04.023Z,24.00
2019-05-10T09:53:38.310Z,23.90
2019-05-10T09:56:07.892Z,23.90
2019-05-10T09:58:38.833Z,23.80
2019-05-10T10:01:17.804Z,23.80
2019-05-10T10:03:43.554Z,23.80
2019-05-10T12:42:41.602Z,24.20
2019-05-10T12:45:09.929Z,24.30
2019-05-10T12:47:41.456Z,24.30
2019-05-10T12:50:10.198Z,24.40
2019-05-10T12:52:39.531Z,24.40
2019-05-10T12:55:08.875Z,24.40
2019-05-10T12:57:37.686Z,24.30
2019-05-10T13:00:12.890Z,24.10
2019-05-10T13:02:37.499Z,24.10
2019-05-10T13:05:07.450Z,24.20
2019-05-10T13:07:37.287Z,24.30
2019-05-10T13:10:09.211Z,24.30
2019-05-10T13:12:44.404Z,24.30
2019-05-10T13:15:09.292Z,24.30
2019-05-10T13:17:44.123Z,24.40
2019-05-10T13:20:09.969Z,24.30
2019-05-10T13:22:39.679Z,24.20
2019-05-10T13:25:08.346Z,24.10
2019-05-10T13:27:38.281Z,24.20
2019-05-10T13:30:08.986Z,24.20
2019-05-10T13:32:38.604Z,24.20
2019-05-10T13:35:07.455Z,24.40
2019-05-10T13:37:36.474Z,24.30
2019-05-10T13:40:08.129Z,24.30
2019-05-10T13:42:43.243Z,24.30
2019-05-10T13:45:07.664Z,24.40
2019-05-10T13:47:36.666Z,24.50
2019-05-10T13:50:07.530Z,24.60
2019-05-10T13:52:40.680Z,24.70
2019-05-10T13:55:07.431Z,24.70
2019-05-10T13:57:36.392Z,24.70
2019-05-10T14:00:07.293Z,24.50
2019-05-10T14:02:36.224Z,24.50
2019-05-10T14:05:06.211Z,24.50
2019-05-10T14:07:35.054Z,24.60
2019-05-10T14:10:04.685Z,24.70
2019-05-10T14:12:33.483Z,24.70
2019-05-10T14:15:08.265Z,24.60
2019-05-10T14:17:32.829Z,24.50
2019-05-10T14:20:01.729Z,24.60
2019-05-10T14:22:30.865Z,24.60
2019-05-10T14:25:00.233Z,24.50
2019-05-10T14:27:29.806Z,24.50
2019-05-10T14:29:59.955Z,24.50
2019-05-10T14:32:28.969Z,24.40
2019-05-10T14:34:57.944Z,24.30
2019-05-10T14:37:26.764Z,24.30
2019-05-10T14:39:55.722Z,24.30
2019-05-10T14:42:31.096Z,24.40
2019-05-10T14:44:55.957Z,24.30
2019-05-10T14:47:24.861Z,24.40
2019-05-10T14:49:53.958Z,24.60
2019-05-10T14:52:22.833Z,24.60
2019-05-10T14:54:55.186Z,24.60
2019-05-10T14:57:22.599Z,24.60
2019-05-10T14:59:51.569Z,24.30
2019-05-10T15:02:22.482Z,24.00
2019-05-10T15:04:50.900Z,24.00
2019-05-10T15:07:20.668Z,24.00
